»·PEaware :: N321 KL88-KSBP

N321 :: KL88-KSBP

FLIGHT INFORMATION

Flight Status: Arrived
Operator: Privately registered:
United States
More flights under this callsign
Pilot: Felipe M. (28672)
Aircraft: CESSNA 172 SKYHAWK
(C172)
More flights by this aircraft type
Origin: KL88
Destination: KSBP San Luis Co Regl
United States
More flights between these airports :: More routes between these airports
Route:
File this flight plan on PilotEdge
Remarks:
Altitude:
(Current/Filed)
6,500ft
Speed:
(Current/Filed)
105kts
Departed: 01-Aug-20 02:38 PM
Arrived: 01-Aug-20 03:22 PM
Distance/Time
Traveled:
Not Available
Distance/Time
To Go:
Arrived

Flight Plot

Page will automatically refresh every two minutes.


Map Options




Map Legend


Flown Route
Filed Route
Departure Airport
Arrival Airport
Navaid (VOR, NDB)
Fix

Horizontal Profiles

Position Reports

Time Latitude Longitude Heading Altitude Ground
Speed
01-Aug-20 14:00 34.942727 -119.690460 25 2192ft 0kts
01-Aug-20 14:00 34.942727 -119.690460 25 2192ft 0kts
01-Aug-20 14:01 34.942727 -119.690460 25 2192ft 0kts
01-Aug-20 14:02 34.942727 -119.690460 25 2192ft 0kts
01-Aug-20 14:03 34.942727 -119.690460 25 2192ft 0kts
01-Aug-20 14:04 34.942727 -119.690460 25 2192ft 0kts
01-Aug-20 14:05 34.942727 -119.690460 25 2192ft 0kts
01-Aug-20 14:06 34.942727 -119.690460 25 2192ft 0kts
01-Aug-20 14:07 34.942727 -119.690460 25 2192ft 0kts
01-Aug-20 14:08 34.942727 -119.690460 25 2192ft 0kts
01-Aug-20 14:09 34.942727 -119.690460 25 2192ft 0kts
01-Aug-20 14:10 34.942727 -119.690460 25 2192ft 0kts
01-Aug-20 14:11 34.942727 -119.690460 25 2192ft 0kts
01-Aug-20 14:12 34.942727 -119.690460 25 2192ft 0kts
01-Aug-20 14:13 34.942727 -119.690460 25 2192ft 0kts
01-Aug-20 14:14 34.942727 -119.690460 25 2192ft 0kts
01-Aug-20 14:15 34.942727 -119.690460 25 2192ft 0kts
01-Aug-20 14:16 34.942727 -119.690460 25 2192ft 0kts
01-Aug-20 14:17 34.942727 -119.690460 25 2192ft 0kts
01-Aug-20 14:18 34.942727 -119.690460 25 2192ft 0kts
01-Aug-20 14:19 34.942845 -119.690593 294 2190ft 7kts
01-Aug-20 14:20 34.942937 -119.690912 281 2188ft 9kts
01-Aug-20 14:21 34.942895 -119.690825 40 2189ft 4kts
01-Aug-20 14:22 34.942979 -119.690844 302 2188ft 0kts
01-Aug-20 14:23 34.942979 -119.690844 302 2188ft 0kts
01-Aug-20 14:24 34.942979 -119.690844 302 2188ft 0kts
01-Aug-20 14:25 34.942979 -119.690844 302 2188ft 0kts
01-Aug-20 14:26 34.942979 -119.690844 302 2188ft 0kts
01-Aug-20 14:27 34.942979 -119.690844 302 2188ft 0kts
01-Aug-20 14:28 34.942942 -119.691115 253 2187ft 0kts
01-Aug-20 14:29 34.942942 -119.691115 253 2187ft 0kts
01-Aug-20 14:30 34.943016 -119.690894 196 2187ft 0kts
01-Aug-20 14:31 34.943016 -119.690894 196 2187ft 0kts
01-Aug-20 14:32 34.943016 -119.690894 196 2187ft 0kts
01-Aug-20 14:33 34.943016 -119.690894 196 2187ft 0kts
01-Aug-20 14:34 34.943016 -119.690894 196 2187ft 0kts
01-Aug-20 14:35 34.943016 -119.690894 196 2187ft 0kts
01-Aug-20 14:36 34.942608 -119.691179 193 2188ft 4kts
01-Aug-20 14:37 34.938890 -119.682891 117 2313ft 79kts
01-Aug-20 14:38 34.929524 -119.657487 119 3314ft 80kts
01-Aug-20 14:39 34.913846 -119.669734 286 4134ft 92kts
01-Aug-20 14:40 34.923624 -119.701550 295 4813ft 100kts
01-Aug-20 14:41 34.931595 -119.725097 294 5467ft 99kts
01-Aug-20 14:42 34.944872 -119.755568 300 6136ft 102kts
01-Aug-20 14:43 34.959794 -119.786168 304 6181ft 105kts
01-Aug-20 14:44 34.974260 -119.814468 295 6534ft 96kts
01-Aug-20 14:45 34.988421 -119.849580 297 6438ft 124kts
01-Aug-20 14:46 35.007213 -119.882754 320 6489ft 117kts
01-Aug-20 14:47 35.026825 -119.916618 306 6229ft 122kts
01-Aug-20 14:48 35.041792 -119.952131 293 6181ft 124kts
01-Aug-20 14:49 35.048239 -119.986936 268 6476ft 104kts
01-Aug-20 14:50 35.055411 -120.026611 299 6168ft 106kts
01-Aug-20 14:51 35.064069 -120.060523 285 6509ft 112kts
01-Aug-20 14:52 35.079776 -120.094583 338 6427ft 112kts
01-Aug-20 14:53 35.087322 -120.127541 241 6331ft 123kts
01-Aug-20 14:54 35.097608 -120.163121 291 6457ft 108kts
01-Aug-20 14:55 35.105452 -120.199872 278 6484ft 126kts
01-Aug-20 14:56 35.111686 -120.242331 280 5820ft 112kts
01-Aug-20 14:57 35.112968 -120.275474 273 5596ft 89kts
01-Aug-20 14:58 35.113392 -120.305632 284 6028ft 102kts
01-Aug-20 14:59 35.132466 -120.322497 348 6145ft 103kts
01-Aug-20 15:00 35.145034 -120.350582 278 6326ft 94kts
01-Aug-20 15:01 35.149773 -120.388090 279 4514ft 134kts
01-Aug-20 15:02 35.159153 -120.424941 285 3249ft 106kts
01-Aug-20 15:03 35.164553 -120.453379 282 2716ft 86kts
01-Aug-20 15:04 35.095329 -120.509701 330 2530ft 81kts
01-Aug-20 15:05 35.109387 -120.519464 331 2622ft 73kts
01-Aug-20 15:06 35.113001 -120.504127 179 2823ft 86kts
01-Aug-20 15:07 35.122329 -120.506556 64 2768ft 93kts
01-Aug-20 15:08 35.117615 -120.497318 175 2717ft 98kts
01-Aug-20 15:09 35.124715 -120.503515 33 2662ft 95kts
01-Aug-20 15:10 35.138238 -120.488785 43 2923ft 80kts
01-Aug-20 15:11 35.157186 -120.484398 304 2771ft 90kts
01-Aug-20 15:12 35.166135 -120.500087 293 2592ft 82kts
01-Aug-20 15:13 35.176135 -120.521216 297 2477ft 83kts
01-Aug-20 15:14 35.187499 -120.550723 297 1989ft 107kts
01-Aug-20 15:15 35.202797 -120.576482 343 1557ft 84kts
01-Aug-20 15:16 35.214260 -120.560724 111 1564ft 92kts
01-Aug-20 15:17 35.201848 -120.564363 275 1564ft 93kts
01-Aug-20 15:18 35.209366 -120.591012 299 1339ft 82kts
01-Aug-20 15:19 35.222033 -120.613685 304 752ft 82kts
01-Aug-20 15:20 35.233907 -120.635074 305 215ft 70kts
01-Aug-20 15:21 35.237776 -120.640551 90 215ft 2kts
01-Aug-20 15:22 35.237833 -120.638980 78 215ft 13kts
01-Aug-20 15:23 35.237699 -120.638675 180 215ft 0kts

Navigation Log

Ident Type
Flight plan parsing failed, navigation log unavailable